sensor_id;sensor_type;location;lat;lon;timestamp;temperature;humidity
17182;DHT22;8706;48.254;16.422;2024-01-30T00:00:46;18.60;55.30
17182;DHT22;8706;48.254;16.422;2024-01-30T00:03:14;18.60;55.40
17182;DHT22;8706;48.254;16.422;2024-01-30T00:05:41;18.60;55.30
17182;DHT22;8706;48.254;16.422;2024-01-30T00:08:08;18.60;55.30
17182;DHT22;8706;48.254;16.422;2024-01-30T00:10:35;18.60;55.30
17182;DHT22;8706;48.254;16.422;2024-01-30T00:13:02;18.60;55.30
17182;DHT22;8706;48.254;16.422;2024-01-30T00:15:29;18.60;55.20
17182;DHT22;8706;48.254;16.422;2024-01-30T00:17:55;18.60;55.20
17182;DHT22;8706;48.254;16.422;2024-01-30T00:20:24;18.60;55.30
17182;DHT22;8706;48.254;16.422;2024-01-30T00:22:51;18.60;55.20
17182;DHT22;8706;48.254;16.422;2024-01-30T00:25:17;18.60;55.20
17182;DHT22;8706;48.254;16.422;2024-01-30T00:27:44;18.60;55.30
17182;DHT22;8706;48.254;16.422;2024-01-30T00:30:12;18.60;55.20
17182;DHT22;8706;48.254;16.422;2024-01-30T00:32:39;18.60;55.20
17182;DHT22;8706;48.254;16.422;2024-01-30T00:35:06;18.60;55.20
17182;DHT22;8706;48.254;16.422;2024-01-30T00:37:37;18.60;55.20
17182;DHT22;8706;48.254;16.422;2024-01-30T00:40:04;18.60;55.20
17182;DHT22;8706;48.254;16.422;2024-01-30T00:42:31;18.60;55.30
17182;DHT22;8706;48.254;16.422;2024-01-30T00:44:58;18.50;55.20
17182;DHT22;8706;48.254;16.422;2024-01-30T00:47:25;18.50;55.20
17182;DHT22;8706;48.254;16.422;2024-01-30T00:49:52;18.60;55.30
17182;DHT22;8706;48.254;16.422;2024-01-30T00:52:19;18.50;55.30
17182;DHT22;8706;48.254;16.422;2024-01-30T00:54:47;18.50;55.30
17182;DHT22;8706;48.254;16.422;2024-01-30T00:57:14;18.50;55.30
17182;DHT22;8706;48.254;16.422;2024-01-30T00:59:41;18.50;55.30
17182;DHT22;8706;48.254;16.422;2024-01-30T01:02:07;18.50;55.30
17182;DHT22;8706;48.254;16.422;2024-01-30T01:04:34;18.50;55.30
17182;DHT22;8706;48.254;16.422;2024-01-30T01:07:01;18.50;55.30
17182;DHT22;8706;48.254;16.422;2024-01-30T01:09:28;18.50;55.30
17182;DHT22;8706;48.254;16.422;2024-01-30T01:11:56;18.50;55.30
17182;DHT22;8706;48.254;16.422;2024-01-30T01:14:23;18.50;55.30
17182;DHT22;8706;48.254;16.422;2024-01-30T01:16:51;18.50;55.30
17182;DHT22;8706;48.254;16.422;2024-01-30T01:19:17;18.50;55.30
17182;DHT22;8706;48.254;16.422;2024-01-30T01:21:44;18.50;55.40
17182;DHT22;8706;48.254;16.422;2024-01-30T01:24:11;18.50;55.40
17182;DHT22;8706;48.254;16.422;2024-01-30T01:26:38;18.50;55.30
17182;DHT22;8706;48.254;16.422;2024-01-30T01:29:06;18.50;55.30
17182;DHT22;8706;48.254;16.422;2024-01-30T01:31:35;18.50;55.40
17182;DHT22;8706;48.254;16.422;2024-01-30T01:34:05;18.50;55.30
17182;DHT22;8706;48.254;16.422;2024-01-30T01:36:32;18.50;55.40
17182;DHT22;8706;48.254;16.422;2024-01-30T01:38:59;18.40;55.30
17182;DHT22;8706;48.254;16.422;2024-01-30T01:41:29;18.50;55.30
17182;DHT22;8706;48.254;16.422;2024-01-30T01:43:56;18.40;55.30
17182;DHT22;8706;48.254;16.422;2024-01-30T01:46:26;18.50;55.40
17182;DHT22;8706;48.254;16.422;2024-01-30T01:48:54;18.50;55.30
17182;DHT22;8706;48.254;16.422;2024-01-30T01:51:22;18.50;55.30
17182;DHT22;8706;48.254;16.422;2024-01-30T01:53:49;18.40;55.30
17182;DHT22;8706;48.254;16.422;2024-01-30T01:56:17;18.40;55.30
17182;DHT22;8706;48.254;16.422;2024-01-30T01:58:44;18.40;55.30
17182;DHT22;8706;48.254;16.422;2024-01-30T02:01:13;18.50;55.40
17182;DHT22;8706;48.254;16.422;2024-01-30T02:03:41;18.40;55.40
17182;DHT22;8706;48.254;16.422;2024-01-30T02:06:08;18.40;55.40
17182;DHT22;8706;48.254;16.422;2024-01-30T02:08:37;18.50;55.40
17182;DHT22;8706;48.254;16.422;2024-01-30T02:11:04;18.50;55.40
17182;DHT22;8706;48.254;16.422;2024-01-30T02:13:31;18.50;55.30
17182;DHT22;8706;48.254;16.422;2024-01-30T02:15:58;18.50;55.30
17182;DHT22;8706;48.254;16.422;2024-01-30T02:18:25;18.40;55.40
17182;DHT22;8706;48.254;16.422;2024-01-30T02:20:54;18.50;55.30
17182;DHT22;8706;48.254;16.422;2024-01-30T02:23:24;18.40;55.40
17182;DHT22;8706;48.254;16.422;2024-01-30T02:25:51;18.40;55.40
17182;DHT22;8706;48.254;16.422;2024-01-30T02:28:19;18.50;55.40
17182;DHT22;8706;48.254;16.422;2024-01-30T02:30:46;18.40;55.50
17182;DHT22;8706;48.254;16.422;2024-01-30T02:33:13;18.40;55.40
17182;DHT22;8706;48.254;16.422;2024-01-30T02:35:40;18.40;55.40
17182;DHT22;8706;48.254;16.422;2024-01-30T02:38:07;18.40;55.40
17182;DHT22;8706;48.254;16.422;2024-01-30T02:40:35;18.40;55.40
17182;DHT22;8706;48.254;16.422;2024-01-30T02:43:03;18.40;55.40
17182;DHT22;8706;48.254;16.422;2024-01-30T02:45:30;18.40;55.40
17182;DHT22;8706;48.254;16.422;2024-01-30T02:47:57;18.40;55.50
17182;DHT22;8706;48.254;16.422;2024-01-30T02:50:24;18.40;55.40
17182;DHT22;8706;48.254;16.422;2024-01-30T02:52:50;18.40;55.50
17182;DHT22;8706;48.254;16.422;2024-01-30T02:55:17;18.40;55.50
17182;DHT22;8706;48.254;16.422;2024-01-30T02:57:46;18.40;55.50
17182;DHT22;8706;48.254;16.422;2024-01-30T03:00:13;18.40;55.50
17182;DHT22;8706;48.254;16.422;2024-01-30T03:02:40;18.40;55.50
17182;DHT22;8706;48.254;16.422;2024-01-30T03:05:08;18.40;55.50
17182;DHT22;8706;48.254;16.422;2024-01-30T03:07:35;18.40;55.60
17182;DHT22;8706;48.254;16.422;2024-01-30T03:10:02;18.40;55.50
17182;DHT22;8706;48.254;16.422;2024-01-30T03:12:30;18.40;55.40
17182;DHT22;8706;48.254;16.422;2024-01-30T03:14:58;18.40;55.50
17182;DHT22;8706;48.254;16.422;2024-01-30T03:17:25;18.40;55.60
17182;DHT22;8706;48.254;16.422;2024-01-30T03:19:52;18.40;55.50
17182;DHT22;8706;48.254;16.422;2024-01-30T03:22:19;18.40;55.50
17182;DHT22;8706;48.254;16.422;2024-01-30T03:24:46;18.40;55.30
17182;DHT22;8706;48.254;16.422;2024-01-30T03:27:12;18.40;55.40
17182;DHT22;8706;48.254;16.422;2024-01-30T03:29:39;18.40;55.50
17182;DHT22;8706;48.254;16.422;2024-01-30T03:32:07;18.30;55.50
17182;DHT22;8706;48.254;16.422;2024-01-30T03:34:34;18.30;55.50
17182;DHT22;8706;48.254;16.422;2024-01-30T03:37:01;18.40;55.50
17182;DHT22;8706;48.254;16.422;2024-01-30T03:39:28;18.30;55.50
17182;DHT22;8706;48.254;16.422;2024-01-30T03:41:55;18.30;55.50
17182;DHT22;8706;48.254;16.422;2024-01-30T03:44:22;18.40;55.50
17182;DHT22;8706;48.254;16.422;2024-01-30T03:46:49;18.30;55.40
17182;DHT22;8706;48.254;16.422;2024-01-30T03:49:18;18.40;55.40
17182;DHT22;8706;48.254;16.422;2024-01-30T03:51:45;18.30;55.40
17182;DHT22;8706;48.254;16.422;2024-01-30T03:54:13;18.30;55.50
17182;DHT22;8706;48.254;16.422;2024-01-30T03:56:39;18.40;55.50
17182;DHT22;8706;48.254;16.422;2024-01-30T03:59:06;18.30;55.50
17182;DHT22;8706;48.254;16.422;2024-01-30T04:01:33;18.30;55.40
17182;DHT22;8706;48.254;16.422;2024-01-30T04:04:00;18.30;55.40
17182;DHT22;8706;48.254;16.422;2024-01-30T04:06:28;18.40;55.40
17182;DHT22;8706;48.254;16.422;2024-01-30T04:08:55;18.30;55.40
17182;DHT22;8706;48.254;16.422;2024-01-30T04:11:22;18.30;55.40
17182;DHT22;8706;48.254;16.422;2024-01-30T04:13:49;18.30;55.50
17182;DHT22;8706;48.254;16.422;2024-01-30T04:16:22;18.30;55.50
17182;DHT22;8706;48.254;16.422;2024-01-30T04:18:49;18.30;55.50
17182;DHT22;8706;48.254;16.422;2024-01-30T04:21:16;18.30;55.40
17182;DHT22;8706;48.254;16.422;2024-01-30T04:23:44;18.30;55.40
17182;DHT22;8706;48.254;16.422;2024-01-30T04:26:11;18.30;55.40
17182;DHT22;8706;48.254;16.422;2024-01-30T04:28:38;18.30;55.40
17182;DHT22;8706;48.254;16.422;2024-01-30T04:31:04;18.30;55.40
17182;DHT22;8706;48.254;16.422;2024-01-30T04:33:31;18.30;55.40
17182;DHT22;8706;48.254;16.422;2024-01-30T04:35:58;18.30;55.40
17182;DHT22;8706;48.254;16.422;2024-01-30T04:38:25;18.30;55.40
17182;DHT22;8706;48.254;16.422;2024-01-30T04:40:53;18.40;55.30
17182;DHT22;8706;48.254;16.422;2024-01-30T04:43:20;18.30;55.30
17182;DHT22;8706;48.254;16.422;2024-01-30T04:45:47;18.30;55.30
17182;DHT22;8706;48.254;16.422;2024-01-30T04:48:14;18.30;55.40
17182;DHT22;8706;48.254;16.422;2024-01-30T04:50:41;18.30;55.40
17182;DHT22;8706;48.254;16.422;2024-01-30T04:53:07;18.30;55.30
17182;DHT22;8706;48.254;16.422;2024-01-30T04:55:35;18.20;55.40
17182;DHT22;8706;48.254;16.422;2024-01-30T04:58:04;18.30;55.30
17182;DHT22;8706;48.254;16.422;2024-01-30T05:00:30;18.20;55.50
17182;DHT22;8706;48.254;16.422;2024-01-30T05:02:57;18.20;55.50
17182;DHT22;8706;48.254;16.422;2024-01-30T05:05:24;18.30;55.30
17182;DHT22;8706;48.254;16.422;2024-01-30T05:07:51;18.20;55.20
17182;DHT22;8706;48.254;16.422;2024-01-30T05:10:18;18.30;55.30
17182;DHT22;8706;48.254;16.422;2024-01-30T05:12:45;18.30;55.30
17182;DHT22;8706;48.254;16.422;2024-01-30T05:15:13;18.20;55.30
17182;DHT22;8706;48.254;16.422;2024-01-30T05:17:40;18.20;55.30
17182;DHT22;8706;48.254;16.422;2024-01-30T05:20:08;18.20;55.50
17182;DHT22;8706;48.254;16.422;2024-01-30T05:22:36;18.20;55.30
17182;DHT22;8706;48.254;16.422;2024-01-30T05:25:03;18.20;55.30
17182;DHT22;8706;48.254;16.422;2024-01-30T05:27:30;18.30;55.40
17182;DHT22;8706;48.254;16.422;2024-01-30T05:29:57;18.20;55.30
17182;DHT22;8706;48.254;16.422;2024-01-30T05:32:25;18.20;55.20
17182;DHT22;8706;48.254;16.422;2024-01-30T05:34:52;18.20;55.20
17182;DHT22;8706;48.254;16.422;2024-01-30T05:37:19;18.20;55.40
17182;DHT22;8706;48.254;16.422;2024-01-30T05:39:46;18.20;55.30
17182;DHT22;8706;48.254;16.422;2024-01-30T05:42:13;18.20;55.30
17182;DHT22;8706;48.254;16.422;2024-01-30T05:44:40;18.20;55.40
17182;DHT22;8706;48.254;16.422;2024-01-30T05:47:07;18.20;55.40
17182;DHT22;8706;48.254;16.422;2024-01-30T05:49:35;18.20;55.50
17182;DHT22;8706;48.254;16.422;2024-01-30T05:52:03;18.20;55.40
17182;DHT22;8706;48.254;16.422;2024-01-30T05:54:30;18.10;55.50
17182;DHT22;8706;48.254;16.422;2024-01-30T05:56:57;18.10;55.60
17182;DHT22;8706;48.254;16.422;2024-01-30T05:59:24;18.10;55.50
17182;DHT22;8706;48.254;16.422;2024-01-30T06:01:51;18.10;55.50
17182;DHT22;8706;48.254;16.422;2024-01-30T06:04:17;18.20;55.50
17182;DHT22;8706;48.254;16.422;2024-01-30T06:06:46;18.20;55.50
17182;DHT22;8706;48.254;16.422;2024-01-30T06:09:12;18.20;55.40
17182;DHT22;8706;48.254;16.422;2024-01-30T06:11:40;18.20;55.40
17182;DHT22;8706;48.254;16.422;2024-01-30T06:14:07;18.20;55.40
17182;DHT22;8706;48.254;16.422;2024-01-30T06:16:34;18.10;55.50
17182;DHT22;8706;48.254;16.422;2024-01-30T06:19:00;18.10;55.50
17182;DHT22;8706;48.254;16.422;2024-01-30T06:21:27;18.10;55.60
17182;DHT22;8706;48.254;16.422;2024-01-30T06:23:55;18.20;55.50
17182;DHT22;8706;48.254;16.422;2024-01-30T06:26:22;18.10;55.50
17182;DHT22;8706;48.254;16.422;2024-01-30T06:28:49;18.10;55.50
17182;DHT22;8706;48.254;16.422;2024-01-30T06:31:16;18.10;55.50
17182;DHT22;8706;48.254;16.422;2024-01-30T06:33:43;18.20;55.50
17182;DHT22;8706;48.254;16.422;2024-01-30T06:36:10;18.10;55.50
17182;DHT22;8706;48.254;16.422;2024-01-30T06:38:36;18.20;55.50
17182;DHT22;8706;48.254;16.422;2024-01-30T06:41:05;18.20;55.50
17182;DHT22;8706;48.254;16.422;2024-01-30T06:43:32;18.20;55.50
17182;DHT22;8706;48.254;16.422;2024-01-30T06:45:59;18.20;55.50
17182;DHT22;8706;48.254;16.422;2024-01-30T06:48:25;18.20;55.60
17182;DHT22;8706;48.254;16.422;2024-01-30T06:50:53;18.20;55.50
17182;DHT22;8706;48.254;16.422;2024-01-30T06:53:20;18.30;55.50
17182;DHT22;8706;48.254;16.422;2024-01-30T06:55:47;18.20;55.40
17182;DHT22;8706;48.254;16.422;2024-01-30T06:58:15;18.20;55.40
17182;DHT22;8706;48.254;16.422;2024-01-30T07:00:42;18.30;55.30
17182;DHT22;8706;48.254;16.422;2024-01-30T07:03:09;18.30;55.30
17182;DHT22;8706;48.254;16.422;2024-01-30T07:05:36;18.40;55.20
17182;DHT22;8706;48.254;16.422;2024-01-30T07:08:03;18.40;55.10
17182;DHT22;8706;48.254;16.422;2024-01-30T07:10:30;18.40;55.10
17182;DHT22;8706;48.254;16.422;2024-01-30T07:12:57;18.40;55.20
17182;DHT22;8706;48.254;16.422;2024-01-30T07:15:25;18.40;55.10
17182;DHT22;8706;48.254;16.422;2024-01-30T07:17:52;18.40;55.00
17182;DHT22;8706;48.254;16.422;2024-01-30T07:20:19;18.50;54.90
17182;DHT22;8706;48.254;16.422;2024-01-30T07:22:46;18.60;54.80
17182;DHT22;8706;48.254;16.422;2024-01-30T07:25:13;18.60;54.80
17182;DHT22;8706;48.254;16.422;2024-01-30T07:27:40;18.60;54.70
17182;DHT22;8706;48.254;16.422;2024-01-30T07:30:07;18.70;54.60
17182;DHT22;8706;48.254;16.422;2024-01-30T07:32:36;18.70;54.50
17182;DHT22;8706;48.254;16.422;2024-01-30T07:35:03;18.80;54.40
17182;DHT22;8706;48.254;16.422;2024-01-30T07:37:30;18.90;54.30
17182;DHT22;8706;48.254;16.422;2024-01-30T07:39:57;18.90;54.20
17182;DHT22;8706;48.254;16.422;2024-01-30T07:42:24;18.90;54.10
17182;DHT22;8706;48.254;16.422;2024-01-30T07:44:51;19.00;54.00
17182;DHT22;8706;48.254;16.422;2024-01-30T07:47:18;19.10;53.90
17182;DHT22;8706;48.254;16.422;2024-01-30T07:49:46;19.20;53.80
17182;DHT22;8706;48.254;16.422;2024-01-30T07:52:13;19.20;53.70
17182;DHT22;8706;48.254;16.422;2024-01-30T07:58:01;19.30;53.50
17182;DHT22;8706;48.254;16.422;2024-01-30T08:00:30;19.40;53.30
17182;DHT22;8706;48.254;16.422;2024-01-30T08:02:57;19.50;53.20
17182;DHT22;8706;48.254;16.422;2024-01-30T08:05:25;19.60;53.10
17182;DHT22;8706;48.254;16.422;2024-01-30T08:07:52;19.60;53.00
17182;DHT22;8706;48.254;16.422;2024-01-30T08:10:19;19.70;52.90
17182;DHT22;8706;48.254;16.422;2024-01-30T08:12:46;19.80;52.70
17182;DHT22;8706;48.254;16.422;2024-01-30T08:15:13;19.90;52.60
17182;DHT22;8706;48.254;16.422;2024-01-30T08:17:40;19.90;52.40
17182;DHT22;8706;48.254;16.422;2024-01-30T08:20:08;20.00;52.30
17182;DHT22;8706;48.254;16.422;2024-01-30T08:22:38;20.10;52.20
17182;DHT22;8706;48.254;16.422;2024-01-30T08:25:06;20.10;52.10
17182;DHT22;8706;48.254;16.422;2024-01-30T08:27:33;20.20;52.10
17182;DHT22;8706;48.254;16.422;2024-01-30T08:30:01;20.30;51.90
17182;DHT22;8706;48.254;16.422;2024-01-30T08:32:28;20.30;51.80
17182;DHT22;8706;48.254;16.422;2024-01-30T08:34:55;20.30;51.90
17182;DHT22;8706;48.254;16.422;2024-01-30T08:37:21;20.30;51.80
17182;DHT22;8706;48.254;16.422;2024-01-30T08:39:50;20.40;51.90
17182;DHT22;8706;48.254;16.422;2024-01-30T08:42:16;20.40;51.90
17182;DHT22;8706;48.254;16.422;2024-01-30T08:44:48;20.40;51.90
17182;DHT22;8706;48.254;16.422;2024-01-30T08:47:15;20.40;51.80
17182;DHT22;8706;48.254;16.422;2024-01-30T08:49:43;20.40;51.90
17182;DHT22;8706;48.254;16.422;2024-01-30T08:52:09;20.30;51.90
17182;DHT22;8706;48.254;16.422;2024-01-30T08:54:36;20.40;52.00
17182;DHT22;8706;48.254;16.422;2024-01-30T08:57:05;20.40;51.90
17182;DHT22;8706;48.254;16.422;2024-01-30T08:59:32;20.40;51.90
17182;DHT22;8706;48.254;16.422;2024-01-30T09:01:59;20.50;51.80
17182;DHT22;8706;48.254;16.422;2024-01-30T09:04:26;20.60;51.70
17182;DHT22;8706;48.254;16.422;2024-01-30T09:06:53;20.60;51.60
17182;DHT22;8706;48.254;16.422;2024-01-30T09:09:19;20.80;51.40
17182;DHT22;8706;48.254;16.422;2024-01-30T09:11:46;20.90;51.10
17182;DHT22;8706;48.254;16.422;2024-01-30T09:14:14;21.00;50.90
17182;DHT22;8706;48.254;16.422;2024-01-30T09:16:41;21.30;50.70
17182;DHT22;8706;48.254;16.422;2024-01-30T09:19:08;21.50;50.40
17182;DHT22;8706;48.254;16.422;2024-01-30T09:21:35;21.70;50.10
17182;DHT22;8706;48.254;16.422;2024-01-30T09:24:03;21.80;49.80
17182;DHT22;8706;48.254;16.422;2024-01-30T09:26:30;21.90;49.70
17182;DHT22;8706;48.254;16.422;2024-01-30T09:28:57;22.00;49.50
17182;DHT22;8706;48.254;16.422;2024-01-30T09:31:25;22.10;49.30
17182;DHT22;8706;48.254;16.422;2024-01-30T09:33:52;22.20;49.20
17182;DHT22;8706;48.254;16.422;2024-01-30T09:36:19;22.30;49.10
17182;DHT22;8706;48.254;16.422;2024-01-30T09:38:46;22.40;48.90
17182;DHT22;8706;48.254;16.422;2024-01-30T09:41:14;22.40;48.70
17182;DHT22;8706;48.254;16.422;2024-01-30T09:43:42;22.50;48.60
17182;DHT22;8706;48.254;16.422;2024-01-30T09:46:15;22.60;48.50
17182;DHT22;8706;48.254;16.422;2024-01-30T09:48:46;22.60;48.50
17182;DHT22;8706;48.254;16.422;2024-01-30T09:51:14;22.70;48.30
17182;DHT22;8706;48.254;16.422;2024-01-30T09:53:42;22.70;48.30
17182;DHT22;8706;48.254;16.422;2024-01-30T09:56:10;22.80;48.20
17182;DHT22;8706;48.254;16.422;2024-01-30T09:58:37;22.80;48.10
17182;DHT22;8706;48.254;16.422;2024-01-30T10:01:05;22.90;48.00
17182;DHT22;8706;48.254;16.422;2024-01-30T10:03:32;22.90;47.80
17182;DHT22;8706;48.254;16.422;2024-01-30T10:06:01;23.00;47.80
17182;DHT22;8706;48.254;16.422;2024-01-30T10:08:28;23.10;47.70
17182;DHT22;8706;48.254;16.422;2024-01-30T10:10:55;23.10;47.60
17182;DHT22;8706;48.254;16.422;2024-01-30T10:13:22;23.10;47.60
17182;DHT22;8706;48.254;16.422;2024-01-30T10:15:49;23.20;47.50
17182;DHT22;8706;48.254;16.422;2024-01-30T10:18:17;23.20;47.40
17182;DHT22;8706;48.254;16.422;2024-01-30T10:20:44;23.30;47.30
17182;DHT22;8706;48.254;16.422;2024-01-30T10:23:12;23.40;47.80
17182;DHT22;8706;48.254;16.422;2024-01-30T10:25:39;23.40;47.10
17182;DHT22;8706;48.254;16.422;2024-01-30T10:28:07;23.50;47.10
17182;DHT22;8706;48.254;16.422;2024-01-30T10:30:34;23.50;46.90
17182;DHT22;8706;48.254;16.422;2024-01-30T10:33:01;23.60;47.00
17182;DHT22;8706;48.254;16.422;2024-01-30T10:35:28;23.60;46.70
17182;DHT22;8706;48.254;16.422;2024-01-30T10:37:57;23.60;46.50
17182;DHT22;8706;48.254;16.422;2024-01-30T10:40:28;23.70;46.80
17182;DHT22;8706;48.254;16.422;2024-01-30T10:42:56;23.70;46.40
17182;DHT22;8706;48.254;16.422;2024-01-30T10:45:23;23.70;46.70
17182;DHT22;8706;48.254;16.422;2024-01-30T10:47:55;23.80;46.60
17182;DHT22;8706;48.254;16.422;2024-01-30T10:50:25;23.80;46.50
17182;DHT22;8706;48.254;16.422;2024-01-30T10:52:52;23.90;46.50
17182;DHT22;8706;48.254;16.422;2024-01-30T10:55:22;23.90;46.30
17182;DHT22;8706;48.254;16.422;2024-01-30T10:57:50;23.90;46.20
17182;DHT22;8706;48.254;16.422;2024-01-30T11:00:19;23.90;46.10
17182;DHT22;8706;48.254;16.422;2024-01-30T11:02:49;24.00;46.50
17182;DHT22;8706;48.254;16.422;2024-01-30T11:05:23;24.00;46.10
17182;DHT22;8706;48.254;16.422;2024-01-30T11:07:51;24.00;46.10
17182;DHT22;8706;48.254;16.422;2024-01-30T11:10:19;24.00;46.00
17182;DHT22;8706;48.254;16.422;2024-01-30T11:12:46;24.00;46.20
17182;DHT22;8706;48.254;16.422;2024-01-30T11:15:15;24.00;46.00
17182;DHT22;8706;48.254;16.422;2024-01-30T11:17:43;24.10;46.30
17182;DHT22;8706;48.254;16.422;2024-01-30T11:20:11;24.10;46.00
17182;DHT22;8706;48.254;16.422;2024-01-30T11:22:41;24.10;46.00
17182;DHT22;8706;48.254;16.422;2024-01-30T11:25:11;24.20;46.30
17182;DHT22;8706;48.254;16.422;2024-01-30T11:27:38;24.20;46.00
17182;DHT22;8706;48.254;16.422;2024-01-30T11:30:07;24.20;45.90
17182;DHT22;8706;48.254;16.422;2024-01-30T11:32:35;24.20;46.20
17182;DHT22;8706;48.254;16.422;2024-01-30T11:35:04;24.20;45.90
17182;DHT22;8706;48.254;16.422;2024-01-30T11:37:32;24.20;45.90
17182;DHT22;8706;48.254;16.422;2024-01-30T11:40:03;24.20;45.90
17182;DHT22;8706;48.254;16.422;2024-01-30T11:42:30;24.20;46.00
17182;DHT22;8706;48.254;16.422;2024-01-30T11:45:00;24.30;46.20
17182;DHT22;8706;48.254;16.422;2024-01-30T11:47:27;24.30;46.30
17182;DHT22;8706;48.254;16.422;2024-01-30T11:49:56;24.30;46.20
17182;DHT22;8706;48.254;16.422;2024-01-30T11:52:23;24.30;46.30
17182;DHT22;8706;48.254;16.422;2024-01-30T11:54:50;24.30;45.90
17182;DHT22;8706;48.254;16.422;2024-01-30T11:57:17;24.30;46.00
17182;DHT22;8706;48.254;16.422;2024-01-30T11:59:44;24.30;46.00
17182;DHT22;8706;48.254;16.422;2024-01-30T12:02:15;24.30;45.60
17182;DHT22;8706;48.254;16.422;2024-01-30T12:04:43;24.30;45.60
17182;DHT22;8706;48.254;16.422;2024-01-30T12:07:12;24.40;45.80
17182;DHT22;8706;48.254;16.422;2024-01-30T12:09:41;24.30;46.00
17182;DHT22;8706;48.254;16.422;2024-01-30T12:12:08;24.40;45.80
17182;DHT22;8706;48.254;16.422;2024-01-30T12:14:38;24.30;45.90
17182;DHT22;8706;48.254;16.422;2024-01-30T12:17:05;24.30;46.00
17182;DHT22;8706;48.254;16.422;2024-01-30T12:19:33;24.40;46.10
17182;DHT22;8706;48.254;16.422;2024-01-30T12:22:00;24.30;46.00
17182;DHT22;8706;48.254;16.422;2024-01-30T12:24:28;24.40;46.00
17182;DHT22;8706;48.254;16.422;2024-01-30T12:26:57;24.40;46.10
17182;DHT22;8706;48.254;16.422;2024-01-30T12:29:24;24.40;46.00
17182;DHT22;8706;48.254;16.422;2024-01-30T12:31:53;24.40;46.20
17182;DHT22;8706;48.254;16.422;2024-01-30T12:34:20;24.40;46.10
17182;DHT22;8706;48.254;16.422;2024-01-30T12:36:47;24.40;46.20
17182;DHT22;8706;48.254;16.422;2024-01-30T12:39:14;24.50;46.20
17182;DHT22;8706;48.254;16.422;2024-01-30T12:41:43;24.50;46.20
17182;DHT22;8706;48.254;16.422;2024-01-30T12:44:10;24.50;46.00
17182;DHT22;8706;48.254;16.422;2024-01-30T12:46:37;24.50;45.80
17182;DHT22;8706;48.254;16.422;2024-01-30T12:49:03;24.50;46.10
17182;DHT22;8706;48.254;16.422;2024-01-30T12:51:30;24.50;46.10
17182;DHT22;8706;48.254;16.422;2024-01-30T12:54:04;24.40;46.00
17182;DHT22;8706;48.254;16.422;2024-01-30T12:56:31;24.40;46.10
17182;DHT22;8706;48.254;16.422;2024-01-30T12:59:00;24.40;46.10
17182;DHT22;8706;48.254;16.422;2024-01-30T13:01:27;24.40;46.00
17182;DHT22;8706;48.254;16.422;2024-01-30T13:03:54;24.40;46.00
17182;DHT22;8706;48.254;16.422;2024-01-30T13:06:23;24.40;46.00
17182;DHT22;8706;48.254;16.422;2024-01-30T13:08:49;24.40;45.90
17182;DHT22;8706;48.254;16.422;2024-01-30T13:11:16;24.40;46.20
17182;DHT22;8706;48.254;16.422;2024-01-30T13:13:43;24.40;46.30
17182;DHT22;8706;48.254;16.422;2024-01-30T13:16:11;24.50;46.30
17182;DHT22;8706;48.254;16.422;2024-01-30T13:18:38;24.50;46.30
17182;DHT22;8706;48.254;16.422;2024-01-30T13:21:05;24.50;46.20
17182;DHT22;8706;48.254;16.422;2024-01-30T13:23:32;24.50;46.20
17182;DHT22;8706;48.254;16.422;2024-01-30T13:25:59;24.50;46.30
17182;DHT22;8706;48.254;16.422;2024-01-30T13:28:26;24.40;46.30
17182;DHT22;8706;48.254;16.422;2024-01-30T13:30:53;24.40;46.20
17182;DHT22;8706;48.254;16.422;2024-01-30T13:33:21;24.50;46.30
17182;DHT22;8706;48.254;16.422;2024-01-30T13:35:48;24.40;46.10
17182;DHT22;8706;48.254;16.422;2024-01-30T13:38:15;24.40;46.20
17182;DHT22;8706;48.254;16.422;2024-01-30T13:40:42;24.40;46.00
17182;DHT22;8706;48.254;16.422;2024-01-30T13:43:09;24.30;46.00
17182;DHT22;8706;48.254;16.422;2024-01-30T13:45:36;24.30;46.00
17182;DHT22;8706;48.254;16.422;2024-01-30T13:48:03;24.30;46.00
17182;DHT22;8706;48.254;16.422;2024-01-30T13:50:32;24.30;46.20
17182;DHT22;8706;48.254;16.422;2024-01-30T13:52:59;24.30;46.20
17182;DHT22;8706;48.254;16.422;2024-01-30T13:55:26;24.20;46.00
17182;DHT22;8706;48.254;16.422;2024-01-30T13:57:53;24.20;46.50
17182;DHT22;8706;48.254;16.422;2024-01-30T14:00:21;24.20;46.00
17182;DHT22;8706;48.254;16.422;2024-01-30T14:02:48;24.20;46.20
17182;DHT22;8706;48.254;16.422;2024-01-30T14:05:15;24.20;46.10
17182;DHT22;8706;48.254;16.422;2024-01-30T14:07:43;24.10;45.60
17182;DHT22;8706;48.254;16.422;2024-01-30T14:10:10;24.10;45.90
17182;DHT22;8706;48.254;16.422;2024-01-30T14:12:37;24.00;45.70
17182;DHT22;8706;48.254;16.422;2024-01-30T14:15:05;24.00;46.40
17182;DHT22;8706;48.254;16.422;2024-01-30T14:17:31;24.00;45.80
17182;DHT22;8706;48.254;16.422;2024-01-30T14:19:58;24.00;45.80
17182;DHT22;8706;48.254;16.422;2024-01-30T14:22:24;23.90;46.20
17182;DHT22;8706;48.254;16.422;2024-01-30T14:24:53;23.90;46.20
17182;DHT22;8706;48.254;16.422;2024-01-30T14:27:19;23.90;45.50
17182;DHT22;8706;48.254;16.422;2024-01-30T14:29:46;23.80;45.70
17182;DHT22;8706;48.254;16.422;2024-01-30T14:32:13;23.80;45.90
17182;DHT22;8706;48.254;16.422;2024-01-30T14:34:40;23.70;45.90
17182;DHT22;8706;48.254;16.422;2024-01-30T14:37:07;23.70;46.20
17182;DHT22;8706;48.254;16.422;2024-01-30T14:39:34;23.60;45.70
17182;DHT22;8706;48.254;16.422;2024-01-30T14:42:04;23.60;45.90
17182;DHT22;8706;48.254;16.422;2024-01-30T14:44:31;23.60;45.90
17182;DHT22;8706;48.254;16.422;2024-01-30T14:46:59;23.50;45.80
17182;DHT22;8706;48.254;16.422;2024-01-30T14:49:26;23.50;45.90
17182;DHT22;8706;48.254;16.422;2024-01-30T14:51:53;23.40;46.30
17182;DHT22;8706;48.254;16.422;2024-01-30T14:54:20;23.40;46.50
17182;DHT22;8706;48.254;16.422;2024-01-30T14:56:47;23.30;46.70
17182;DHT22;8706;48.254;16.422;2024-01-30T14:59:15;23.30;46.40
17182;DHT22;8706;48.254;16.422;2024-01-30T15:01:42;23.20;46.30
17182;DHT22;8706;48.254;16.422;2024-01-30T15:04:10;23.10;46.60
17182;DHT22;8706;48.254;16.422;2024-01-30T15:06:38;23.10;46.70
17182;DHT22;8706;48.254;16.422;2024-01-30T15:09:10;23.00;47.20
17182;DHT22;8706;48.254;16.422;2024-01-30T15:11:40;23.00;47.10
17182;DHT22;8706;48.254;16.422;2024-01-30T15:14:07;22.90;47.10
17182;DHT22;8706;48.254;16.422;2024-01-30T15:16:35;22.90;46.80
17182;DHT22;8706;48.254;16.422;2024-01-30T15:19:02;22.80;47.60
17182;DHT22;8706;48.254;16.422;2024-01-30T15:21:30;22.70;47.30
17182;DHT22;8706;48.254;16.422;2024-01-30T15:23:57;22.70;47.40
17182;DHT22;8706;48.254;16.422;2024-01-30T15:26:24;22.60;47.60
17182;DHT22;8706;48.254;16.422;2024-01-30T15:28:51;22.60;47.50
17182;DHT22;8706;48.254;16.422;2024-01-30T15:31:18;22.50;47.90
17182;DHT22;8706;48.254;16.422;2024-01-30T15:33:47;22.50;48.10